sensor_id;sensor_type;location;lat;lon;timestamp;pressure;altitude;pressure_sealevel;temperature;humidity
74659;BME280;63186;51.204;6.536;2022-11-02T00:00:39;101155.75;;;12.88;68.76
74659;BME280;63186;51.204;6.536;2022-11-02T00:03:05;101148.13;;;12.85;68.87
74659;BME280;63186;51.204;6.536;2022-11-02T00:05:30;101158.50;;;12.88;68.82
74659;BME280;63186;51.204;6.536;2022-11-02T00:07:55;101160.25;;;12.84;69.11
74659;BME280;63186;51.204;6.536;2022-11-02T00:10:22;101164.69;;;12.85;68.95
74659;BME280;63186;51.204;6.536;2022-11-02T00:12:48;101163.41;;;12.91;68.71
74659;BME280;63186;51.204;6.536;2022-11-02T00:15:14;101160.00;;;12.94;68.34
74659;BME280;63186;51.204;6.536;2022-11-02T00:17:48;101154.28;;;12.91;68.62
74659;BME280;63186;51.204;6.536;2022-11-02T00:20:16;101169.88;;;12.87;68.55
74659;BME280;63186;51.204;6.536;2022-11-02T00:22:43;101156.25;;;12.90;68.62
74659;BME280;63186;51.204;6.536;2022-11-02T00:25:09;101164.88;;;12.97;68.59
74659;BME280;63186;51.204;6.536;2022-11-02T00:27:37;101154.34;;;12.99;68.46
74659;BME280;63186;51.204;6.536;2022-11-02T00:30:04;101166.22;;;13.00;68.46
74659;BME280;63186;51.204;6.536;2022-11-02T00:32:30;101167.66;;;12.97;68.63
74659;BME280;63186;51.204;6.536;2022-11-02T00:34:55;101163.25;;;12.96;68.82
74659;BME280;63186;51.204;6.536;2022-11-02T00:37:20;101171.44;;;13.01;68.57
74659;BME280;63186;51.204;6.536;2022-11-02T00:39:45;101166.09;;;13.05;68.64
74659;BME280;63186;51.204;6.536;2022-11-02T00:42:11;101168.34;;;13.03;68.64
74659;BME280;63186;51.204;6.536;2022-11-02T00:44:36;101163.94;;;13.02;68.77
74659;BME280;63186;51.204;6.536;2022-11-02T00:47:01;101160.22;;;12.98;69.01
74659;BME280;63186;51.204;6.536;2022-11-02T00:49:27;101163.91;;;12.93;69.22
74659;BME280;63186;51.204;6.536;2022-11-02T00:51:52;101168.94;;;12.91;69.44
74659;BME280;63186;51.204;6.536;2022-11-02T00:54:17;101171.31;;;12.84;69.34
74659;BME280;63186;51.204;6.536;2022-11-02T00:56:43;101172.53;;;12.69;69.89
74659;BME280;63186;51.204;6.536;2022-11-02T00:59:08;101179.63;;;12.62;70.09
74659;BME280;63186;51.204;6.536;2022-11-02T01:01:33;101181.16;;;12.45;70.65
74659;BME280;63186;51.204;6.536;2022-11-02T01:03:58;101179.44;;;12.36;70.95
74659;BME280;63186;51.204;6.536;2022-11-02T01:06:24;101177.44;;;12.28;71.18
74659;BME280;63186;51.204;6.536;2022-11-02T01:08:49;101183.50;;;12.16;71.71
74659;BME280;63186;51.204;6.536;2022-11-02T01:11:20;101179.72;;;12.12;71.88
74659;BME280;63186;51.204;6.536;2022-11-02T01:13:46;101181.88;;;12.15;71.69
74659;BME280;63186;51.204;6.536;2022-11-02T01:16:12;101173.97;;;12.22;71.44
74659;BME280;63186;51.204;6.536;2022-11-02T01:18:38;101181.38;;;12.35;70.99
74659;BME280;63186;51.204;6.536;2022-11-02T01:21:04;101169.97;;;12.50;70.51
74659;BME280;63186;51.204;6.536;2022-11-02T01:23:33;101178.63;;;12.58;70.68
74659;BME280;63186;51.204;6.536;2022-11-02T01:26:06;101169.53;;;12.57;70.38
74659;BME280;63186;51.204;6.536;2022-11-02T01:28:32;101175.19;;;12.52;70.77
74659;BME280;63186;51.204;6.536;2022-11-02T01:30:58;101172.03;;;12.45;70.91
74659;BME280;63186;51.204;6.536;2022-11-02T01:33:25;101178.69;;;12.44;70.92
74659;BME280;63186;51.204;6.536;2022-11-02T01:35:50;101178.19;;;12.42;71.04
74659;BME280;63186;51.204;6.536;2022-11-02T01:38:16;101173.00;;;12.40;71.33
74659;BME280;63186;51.204;6.536;2022-11-02T01:40:41;101172.19;;;12.40;71.58
74659;BME280;63186;51.204;6.536;2022-11-02T01:43:26;101169.91;;;12.42;71.48
74659;BME280;63186;51.204;6.536;2022-11-02T01:48:41;101179.38;;;12.27;71.84
74659;BME280;63186;51.204;6.536;2022-11-02T01:51:32;101182.78;;;12.10;72.88
74659;BME280;63186;51.204;6.536;2022-11-02T01:54:05;101177.69;;;12.04;72.70
74659;BME280;63186;51.204;6.536;2022-11-02T01:56:32;101178.19;;;12.06;72.50
74659;BME280;63186;51.204;6.536;2022-11-02T01:59:04;101174.75;;;12.00;72.84
74659;BME280;63186;51.204;6.536;2022-11-02T02:01:31;101177.81;;;11.99;72.90
74659;BME280;63186;51.204;6.536;2022-11-02T02:03:56;101178.38;;;11.87;73.21
74659;BME280;63186;51.204;6.536;2022-11-02T02:09:28;101173.53;;;11.65;73.93
74659;BME280;63186;51.204;6.536;2022-11-02T02:11:53;101177.66;;;11.81;73.72
74659;BME280;63186;51.204;6.536;2022-11-02T02:14:19;101175.59;;;11.87;73.63
74659;BME280;63186;51.204;6.536;2022-11-02T02:19:40;101174.50;;;12.10;73.62
74659;BME280;63186;51.204;6.536;2022-11-02T02:30:44;101176.31;;;12.29;72.51
74659;BME280;63186;51.204;6.536;2022-11-02T02:33:13;101178.25;;;12.28;72.40
74659;BME280;63186;51.204;6.536;2022-11-02T02:35:51;101177.34;;;12.19;72.83
74659;BME280;63186;51.204;6.536;2022-11-02T02:38:33;101167.78;;;12.03;73.45
74659;BME280;63186;51.204;6.536;2022-11-02T02:41:12;101175.69;;;11.95;73.52
74659;BME280;63186;51.204;6.536;2022-11-02T02:46:14;101172.00;;;11.86;73.64
74659;BME280;63186;51.204;6.536;2022-11-02T02:48:42;101179.69;;;11.89;73.42
74659;BME280;63186;51.204;6.536;2022-11-02T02:51:15;101179.03;;;11.79;73.48
74659;BME280;63186;51.204;6.536;2022-11-02T02:53:46;101171.09;;;11.77;73.99
74659;BME280;63186;51.204;6.536;2022-11-02T02:56:15;101178.66;;;11.72;73.78
74659;BME280;63186;51.204;6.536;2022-11-02T02:59:06;101181.09;;;11.73;73.84
74659;BME280;63186;51.204;6.536;2022-11-02T03:01:31;101182.94;;;11.78;73.52
74659;BME280;63186;51.204;6.536;2022-11-02T03:03:57;101176.91;;;11.76;73.42
74659;BME280;63186;51.204;6.536;2022-11-02T03:06:41;101191.84;;;11.75;73.60
74659;BME280;63186;51.204;6.536;2022-11-02T03:09:29;101195.19;;;11.72;73.85
74659;BME280;63186;51.204;6.536;2022-11-02T03:12:14;101200.22;;;11.69;73.73
74659;BME280;63186;51.204;6.536;2022-11-02T03:15:02;101196.44;;;11.65;73.94
74659;BME280;63186;51.204;6.536;2022-11-02T03:20:23;101203.78;;;11.56;74.00
74659;BME280;63186;51.204;6.536;2022-11-02T03:25:36;101197.97;;;11.44;74.71
74659;BME280;63186;51.204;6.536;2022-11-02T03:31:26;101205.13;;;11.45;75.10
74659;BME280;63186;51.204;6.536;2022-11-02T03:34:16;101218.16;;;11.39;75.41
74659;BME280;63186;51.204;6.536;2022-11-02T03:36:55;101218.88;;;11.31;75.30
74659;BME280;63186;51.204;6.536;2022-11-02T03:39:31;101215.41;;;11.39;75.29
74659;BME280;63186;51.204;6.536;2022-11-02T03:42:00;101215.50;;;11.34;75.24
74659;BME280;63186;51.204;6.536;2022-11-02T03:44:28;101219.69;;;11.32;75.26
74659;BME280;63186;51.204;6.536;2022-11-02T03:46:57;101224.91;;;11.33;74.77
74659;BME280;63186;51.204;6.536;2022-11-02T03:49:25;101227.97;;;11.32;74.65
74659;BME280;63186;51.204;6.536;2022-11-02T03:51:54;101235.13;;;11.33;74.87
74659;BME280;63186;51.204;6.536;2022-11-02T03:54:37;101247.50;;;11.35;74.56
74659;BME280;63186;51.204;6.536;2022-11-02T03:57:06;101239.00;;;11.32;74.52
74659;BME280;63186;51.204;6.536;2022-11-02T03:59:34;101251.22;;;11.26;74.63
74659;BME280;63186;51.204;6.536;2022-11-02T04:02:00;101254.19;;;11.16;74.68
74659;BME280;63186;51.204;6.536;2022-11-02T04:04:26;101264.81;;;11.22;74.64
74659;BME280;63186;51.204;6.536;2022-11-02T04:06:51;101264.81;;;11.22;74.71
74659;BME280;63186;51.204;6.536;2022-11-02T04:09:17;101271.22;;;11.18;75.00
74659;BME280;63186;51.204;6.536;2022-11-02T04:11:42;101273.25;;;11.12;75.03
74659;BME280;63186;51.204;6.536;2022-11-02T04:14:26;101273.25;;;11.12;75.14
74659;BME280;63186;51.204;6.536;2022-11-02T04:17:05;101270.00;;;11.10;75.12
74659;BME280;63186;51.204;6.536;2022-11-02T04:19:49;101275.13;;;11.17;74.93
74659;BME280;63186;51.204;6.536;2022-11-02T04:22:15;101276.44;;;11.19;74.53
74659;BME280;63186;51.204;6.536;2022-11-02T04:25:00;101280.53;;;11.22;74.48
74659;BME280;63186;51.204;6.536;2022-11-02T04:27:43;101290.72;;;11.21;74.48
74659;BME280;63186;51.204;6.536;2022-11-02T04:30:09;101300.00;;;11.11;74.73
74659;BME280;63186;51.204;6.536;2022-11-02T04:32:39;101284.34;;;11.07;74.63
74659;BME280;63186;51.204;6.536;2022-11-02T04:35:23;101297.47;;;11.15;74.70
74659;BME280;63186;51.204;6.536;2022-11-02T04:37:48;101300.22;;;11.15;74.45
74659;BME280;63186;51.204;6.536;2022-11-02T04:40:32;101297.84;;;11.08;74.52
74659;BME280;63186;51.204;6.536;2022-11-02T04:42:58;101306.47;;;11.02;74.70
74659;BME280;63186;51.204;6.536;2022-11-02T04:45:23;101316.16;;;10.99;74.85
74659;BME280;63186;51.204;6.536;2022-11-02T04:47:48;101322.81;;;10.98;75.05
74659;BME280;63186;51.204;6.536;2022-11-02T04:50:14;101317.50;;;11.02;74.85
74659;BME280;63186;51.204;6.536;2022-11-02T04:52:39;101315.28;;;11.04;74.43
74659;BME280;63186;51.204;6.536;2022-11-02T04:55:05;101318.91;;;10.99;74.80
74659;BME280;63186;51.204;6.536;2022-11-02T04:57:30;101322.13;;;11.06;74.84
74659;BME280;63186;51.204;6.536;2022-11-02T04:59:55;101320.78;;;11.04;74.62
74659;BME280;63186;51.204;6.536;2022-11-02T05:02:21;101319.22;;;10.98;74.96
74659;BME280;63186;51.204;6.536;2022-11-02T05:04:46;101315.66;;;10.97;75.04
74659;BME280;63186;51.204;6.536;2022-11-02T05:07:11;101330.56;;;10.96;74.80
74659;BME280;63186;51.204;6.536;2022-11-02T05:09:36;101336.66;;;10.93;75.41
74659;BME280;63186;51.204;6.536;2022-11-02T05:12:02;101339.19;;;10.90;75.01
74659;BME280;63186;51.204;6.536;2022-11-02T05:14:29;101332.03;;;10.88;75.18
74659;BME280;63186;51.204;6.536;2022-11-02T05:16:56;101337.72;;;10.78;75.02
74659;BME280;63186;51.204;6.536;2022-11-02T05:19:21;101340.22;;;10.75;75.64
74659;BME280;63186;51.204;6.536;2022-11-02T05:21:46;101341.59;;;10.77;75.26
74659;BME280;63186;51.204;6.536;2022-11-02T05:24:11;101343.66;;;10.85;75.15
74659;BME280;63186;51.204;6.536;2022-11-02T05:26:37;101343.03;;;10.88;75.07
74659;BME280;63186;51.204;6.536;2022-11-02T05:29:02;101331.38;;;10.78;74.96
74659;BME280;63186;51.204;6.536;2022-11-02T05:31:27;101349.59;;;10.74;75.52
74659;BME280;63186;51.204;6.536;2022-11-02T05:33:52;101348.84;;;10.68;75.47
74659;BME280;63186;51.204;6.536;2022-11-02T05:36:18;101345.59;;;10.66;75.62
74659;BME280;63186;51.204;6.536;2022-11-02T05:38:43;101331.53;;;10.68;75.14
74659;BME280;63186;51.204;6.536;2022-11-02T05:41:08;101350.88;;;10.81;74.93
74659;BME280;63186;51.204;6.536;2022-11-02T05:43:34;101366.13;;;10.74;74.97
74659;BME280;63186;51.204;6.536;2022-11-02T05:46:01;101356.38;;;10.63;75.72
74659;BME280;63186;51.204;6.536;2022-11-02T05:48:27;101354.97;;;10.65;75.47
74659;BME280;63186;51.204;6.536;2022-11-02T05:50:59;101363.75;;;10.67;75.47
74659;BME280;63186;51.204;6.536;2022-11-02T05:53:25;101363.00;;;10.62;75.99
74659;BME280;63186;51.204;6.536;2022-11-02T05:55:51;101359.47;;;10.56;76.11
74659;BME280;63186;51.204;6.536;2022-11-02T05:58:17;101369.16;;;10.53;75.98
74659;BME280;63186;51.204;6.536;2022-11-02T06:00:42;101377.38;;;10.58;75.60
74659;BME280;63186;51.204;6.536;2022-11-02T06:03:08;101382.34;;;10.56;75.79
74659;BME280;63186;51.204;6.536;2022-11-02T06:05:33;101375.78;;;10.52;75.68
74659;BME280;63186;51.204;6.536;2022-11-02T06:08:00;101381.59;;;10.51;75.83
74659;BME280;63186;51.204;6.536;2022-11-02T06:10:29;101389.63;;;10.47;76.35
74659;BME280;63186;51.204;6.536;2022-11-02T06:12:56;101389.03;;;10.50;76.14
74659;BME280;63186;51.204;6.536;2022-11-02T06:15:21;101389.03;;;10.50;75.80
74659;BME280;63186;51.204;6.536;2022-11-02T06:17:47;101397.88;;;10.47;75.95
74659;BME280;63186;51.204;6.536;2022-11-02T06:20:12;101407.56;;;10.45;76.10
74659;BME280;63186;51.204;6.536;2022-11-02T06:22:41;101416.03;;;10.48;76.13
74659;BME280;63186;51.204;6.536;2022-11-02T06:25:07;101429.16;;;10.56;75.75
74659;BME280;63186;51.204;6.536;2022-11-02T06:27:33;101421.84;;;10.47;75.98
74659;BME280;63186;51.204;6.536;2022-11-02T06:29:59;101424.06;;;10.45;76.52
74659;BME280;63186;51.204;6.536;2022-11-02T06:32:24;101426.28;;;10.43;76.32
74659;BME280;63186;51.204;6.536;2022-11-02T06:34:50;101439.41;;;10.51;76.00
74659;BME280;63186;51.204;6.536;2022-11-02T06:37:15;101431.72;;;10.48;76.41
74659;BME280;63186;51.204;6.536;2022-11-02T06:39:40;101436.09;;;10.49;76.06
74659;BME280;63186;51.204;6.536;2022-11-02T06:42:05;101446.03;;;10.50;76.30
74659;BME280;63186;51.204;6.536;2022-11-02T06:44:31;101457.31;;;10.48;76.09
74659;BME280;63186;51.204;6.536;2022-11-02T06:46:56;101458.22;;;10.44;76.44
74659;BME280;63186;51.204;6.536;2022-11-02T06:49:22;101469.38;;;10.52;76.25
74659;BME280;63186;51.204;6.536;2022-11-02T06:51:50;101466.81;;;10.61;75.84
74659;BME280;63186;51.204;6.536;2022-11-02T06:54:16;101481.78;;;10.74;75.61
74659;BME280;63186;51.204;6.536;2022-11-02T06:56:41;101483.81;;;10.87;75.65
74659;BME280;63186;51.204;6.536;2022-11-02T06:59:06;101488.41;;;10.97;75.15
74659;BME280;63186;51.204;6.536;2022-11-02T07:01:32;101492.56;;;11.13;74.51
74659;BME280;63186;51.204;6.536;2022-11-02T07:03:57;101506.00;;;11.38;73.42
74659;BME280;63186;51.204;6.536;2022-11-02T07:06:22;101511.69;;;11.80;72.17
74659;BME280;63186;51.204;6.536;2022-11-02T07:08:47;101518.78;;;12.18;70.84
74659;BME280;63186;51.204;6.536;2022-11-02T07:11:14;101537.25;;;12.37;70.26
74659;BME280;63186;51.204;6.536;2022-11-02T07:13:43;101534.38;;;12.28;70.26
74659;BME280;63186;51.204;6.536;2022-11-02T07:16:08;101542.41;;;11.73;72.06
74659;BME280;63186;51.204;6.536;2022-11-02T07:18:33;101542.59;;;11.44;73.17
74659;BME280;63186;51.204;6.536;2022-11-02T07:20:59;101555.16;;;11.31;73.93
74659;BME280;63186;51.204;6.536;2022-11-02T07:23:24;101551.91;;;11.86;72.05
74659;BME280;63186;51.204;6.536;2022-11-02T07:25:49;101560.22;;;12.79;69.02
74659;BME280;63186;51.204;6.536;2022-11-02T07:28:15;101562.13;;;13.47;66.82
74659;BME280;63186;51.204;6.536;2022-11-02T07:30:40;101572.19;;;13.79;64.82
74659;BME280;63186;51.204;6.536;2022-11-02T07:33:05;101579.19;;;13.99;64.37
74659;BME280;63186;51.204;6.536;2022-11-02T07:35:30;101574.06;;;14.37;63.45
74659;BME280;63186;51.204;6.536;2022-11-02T07:38:04;101583.63;;;14.53;62.28
74659;BME280;63186;51.204;6.536;2022-11-02T07:40:31;101585.47;;;14.35;63.60
74659;BME280;63186;51.204;6.536;2022-11-02T07:42:57;101596.34;;;14.85;61.33
74659;BME280;63186;51.204;6.536;2022-11-02T07:45:23;101596.78;;;14.70;62.26
74659;BME280;63186;51.204;6.536;2022-11-02T07:47:49;101596.69;;;13.72;64.59
74659;BME280;63186;51.204;6.536;2022-11-02T07:50:17;101603.22;;;12.85;67.98
74659;BME280;63186;51.204;6.536;2022-11-02T07:52:47;101613.16;;;12.39;69.63
74659;BME280;63186;51.204;6.536;2022-11-02T07:55:15;101617.16;;;12.14;70.95
74659;BME280;63186;51.204;6.536;2022-11-02T07:57:41;101621.09;;;12.08;70.78
74659;BME280;63186;51.204;6.536;2022-11-02T08:00:09;101623.94;;;12.03;71.37
74659;BME280;63186;51.204;6.536;2022-11-02T08:02:34;101619.84;;;12.01;71.29
74659;BME280;63186;51.204;6.536;2022-11-02T08:04:59;101629.22;;;12.00;71.56
74659;BME280;63186;51.204;6.536;2022-11-02T08:07:24;101631.09;;;12.04;71.45
74659;BME280;63186;51.204;6.536;2022-11-02T08:09:50;101632.16;;;12.08;71.39
74659;BME280;63186;51.204;6.536;2022-11-02T08:12:15;101631.63;;;12.06;71.07
74659;BME280;63186;51.204;6.536;2022-11-02T08:14:40;101633.03;;;12.04;71.33
74659;BME280;63186;51.204;6.536;2022-11-02T08:17:06;101633.84;;;12.04;71.40
74659;BME280;63186;51.204;6.536;2022-11-02T08:19:32;101627.00;;;12.02;71.74
74659;BME280;63186;51.204;6.536;2022-11-02T08:21:57;101630.41;;;12.12;71.26
74659;BME280;63186;51.204;6.536;2022-11-02T08:24:22;101638.31;;;12.19;71.02
74659;BME280;63186;51.204;6.536;2022-11-02T08:26:47;101643.38;;;12.31;70.92
74659;BME280;63186;51.204;6.536;2022-11-02T08:29:13;101651.88;;;12.34;70.77
74659;BME280;63186;51.204;6.536;2022-11-02T08:31:38;101652.91;;;12.38;70.41
74659;BME280;63186;51.204;6.536;2022-11-02T08:34:03;101652.22;;;12.46;70.82
74659;BME280;63186;51.204;6.536;2022-11-02T08:36:28;101650.22;;;12.52;70.53
74659;BME280;63186;51.204;6.536;2022-11-02T08:38:54;101659.25;;;12.71;69.95
74659;BME280;63186;51.204;6.536;2022-11-02T08:41:19;101659.66;;;13.52;67.73
74659;BME280;63186;51.204;6.536;2022-11-02T08:43:44;101662.88;;;14.85;63.15
74659;BME280;63186;51.204;6.536;2022-11-02T08:46:09;101668.16;;;16.10;59.30
74659;BME280;63186;51.204;6.536;2022-11-02T08:48:35;101665.53;;;16.83;57.01
74659;BME280;63186;51.204;6.536;2022-11-02T08:51:00;101666.97;;;17.27;54.98
74659;BME280;63186;51.204;6.536;2022-11-02T08:53:26;101669.44;;;17.28;54.93
74659;BME280;63186;51.204;6.536;2022-11-02T08:55:52;101687.84;;;17.80;53.81
74659;BME280;63186;51.204;6.536;2022-11-02T08:58:17;101682.19;;;17.68;53.76
74659;BME280;63186;51.204;6.536;2022-11-02T09:00:42;101683.78;;;18.19;53.00
74659;BME280;63186;51.204;6.536;2022-11-02T09:03:11;101682.31;;;18.01;52.67
74659;BME280;63186;51.204;6.536;2022-11-02T09:05:38;101686.63;;;17.30;53.58
74659;BME280;63186;51.204;6.536;2022-11-02T09:08:11;101680.25;;;17.21;54.66
74659;BME280;63186;51.204;6.536;2022-11-02T09:10:36;101688.69;;;17.80;52.92
74659;BME280;63186;51.204;6.536;2022-11-02T09:13:04;101687.25;;;17.74;52.40
74659;BME280;63186;51.204;6.536;2022-11-02T09:15:32;101691.75;;;17.87;53.31
74659;BME280;63186;51.204;6.536;2022-11-02T09:17:57;101688.19;;;17.78;52.76
74659;BME280;63186;51.204;6.536;2022-11-02T09:20:23;101693.88;;;17.52;53.51
74659;BME280;63186;51.204;6.536;2022-11-02T09:22:48;101701.19;;;17.95;52.75
74659;BME280;63186;51.204;6.536;2022-11-02T09:25:14;101702.34;;;18.36;51.58
74659;BME280;63186;51.204;6.536;2022-11-02T09:27:41;101699.72;;;16.83;54.18
74659;BME280;63186;51.204;6.536;2022-11-02T09:30:07;101715.72;;;17.42;54.15
74659;BME280;63186;51.204;6.536;2022-11-02T09:32:33;101714.41;;;18.28;51.57
74659;BME280;63186;51.204;6.536;2022-11-02T09:34:59;101709.03;;;18.23;51.21
74659;BME280;63186;51.204;6.536;2022-11-02T09:37:25;101709.50;;;18.25;51.52
74659;BME280;63186;51.204;6.536;2022-11-02T09:39:51;101716.41;;;17.98;51.86
74659;BME280;63186;51.204;6.536;2022-11-02T09:42:23;101709.75;;;17.90;50.92
74659;BME280;63186;51.204;6.536;2022-11-02T09:44:57;101712.88;;;18.30;51.08
74659;BME280;63186;51.204;6.536;2022-11-02T09:47:24;101710.31;;;18.25;50.70
74659;BME280;63186;51.204;6.536;2022-11-02T09:49:52;101709.41;;;17.92;51.29
74659;BME280;63186;51.204;6.536;2022-11-02T09:52:37;101712.41;;;17.01;52.28
74659;BME280;63186;51.204;6.536;2022-11-02T09:55:13;101716.38;;;16.48;55.00
74659;BME280;63186;51.204;6.536;2022-11-02T09:57:42;101716.38;;;16.66;54.58
74659;BME280;63186;51.204;6.536;2022-11-02T10:00:13;101711.66;;;16.40;55.09
74659;BME280;63186;51.204;6.536;2022-11-02T10:05:52;101732.88;;;16.36;56.18
74659;BME280;63186;51.204;6.536;2022-11-02T10:08:14;101718.16;;;16.10;56.66
74659;BME280;63186;51.204;6.536;2022-11-02T10:15:58;101721.25;;;15.51;58.33
74659;BME280;63186;51.204;6.536;2022-11-02T10:18:26;101723.72;;;15.53;58.27
74659;BME280;63186;51.204;6.536;2022-11-02T10:25:55;101727.09;;;15.41;58.20
74659;BME280;63186;51.204;6.536;2022-11-02T10:28:28;101726.22;;;15.63;57.86
74659;BME280;63186;51.204;6.536;2022-11-02T10:30:54;101734.28;;;15.73;57.07
74659;BME280;63186;51.204;6.536;2022-11-02T10:33:25;101726.63;;;15.96;55.69
74659;BME280;63186;51.204;6.536;2022-11-02T10:44:35;101725.53;;;15.57;55.11
74659;BME280;63186;51.204;6.536;2022-11-02T10:47:16;101727.91;;;15.33;56.72
74659;BME280;63186;51.204;6.536;2022-11-02T10:52:15;101727.94;;;15.10;57.23
74659;BME280;63186;51.204;6.536;2022-11-02T10:54:41;101729.03;;;15.01;57.31
74659;BME280;63186;51.204;6.536;2022-11-02T10:57:11;101727.13;;;15.10;57.40
74659;BME280;63186;51.204;6.536;2022-11-02T10:59:37;101726.50;;;15.13;56.86
74659;BME280;63186;51.204;6.536;2022-11-02T11:02:10;101729.19;;;15.04;56.83
74659;BME280;63186;51.204;6.536;2022-11-02T11:04:38;101733.31;;;15.07;57.81
74659;BME280;63186;51.204;6.536;2022-11-02T11:07:05;101738.66;;;15.03;57.26
74659;BME280;63186;51.204;6.536;2022-11-02T11:09:37;101736.34;;;14.97;56.85
74659;BME280;63186;51.204;6.536;2022-11-02T11:12:06;101735.28;;;15.06;57.40
74659;BME280;63186;51.204;6.536;2022-11-02T11:14:45;101735.75;;;15.08;56.16
74659;BME280;63186;51.204;6.536;2022-11-02T11:17:15;101747.00;;;15.12;56.84
74659;BME280;63186;51.204;6.536;2022-11-02T11:19:47;101739.47;;;15.04;56.52
74659;BME280;63186;51.204;6.536;2022-11-02T11:22:31;101743.16;;;14.90;54.85
74659;BME280;63186;51.204;6.536;2022-11-02T11:27:54;101752.59;;;14.89;56.29
74659;BME280;63186;51.204;6.536;2022-11-02T11:32:52;101740.66;;;14.80;55.90
74659;BME280;63186;51.204;6.536;2022-11-02T11:35:18;101729.31;;;14.68;56.98
74659;BME280;63186;51.204;6.536;2022-11-02T11:37:48;101737.03;;;14.57;57.26
74659;BME280;63186;51.204;6.536;2022-11-02T11:40:17;101738.59;;;14.72;57.95
74659;BME280;63186;51.204;6.536;2022-11-02T11:47:50;101732.44;;;14.53;57.28
74659;BME280;63186;51.204;6.536;2022-11-02T11:50:17;101724.38;;;14.65;57.62
74659;BME280;63186;51.204;6.536;2022-11-02T11:52:42;101729.03;;;14.78;57.27
74659;BME280;63186;51.204;6.536;2022-11-02T11:55:26;101724.38;;;14.87;57.37
74659;BME280;63186;51.204;6.536;2022-11-02T12:00:41;101737.63;;;15.22;57.93
74659;BME280;63186;51.204;6.536;2022-11-02T12:03:09;101734.06;;;15.30;57.50
74659;BME280;63186;51.204;6.536;2022-11-02T12:08:48;101728.50;;;14.99;56.50
74659;BME280;63186;51.204;6.536;2022-11-02T12:11:29;101721.63;;;14.87;57.39
74659;BME280;63186;51.204;6.536;2022-11-02T12:16:40;101725.69;;;14.90;58.20
74659;BME280;63186;51.204;6.536;2022-11-02T12:19:34;101718.06;;;14.96;58.04
74659;BME280;63186;51.204;6.536;2022-11-02T12:27:30;101722.88;;;14.81;59.63
74659;BME280;63186;51.204;6.536;2022-11-02T12:30:08;101716.44;;;14.72;59.19
74659;BME280;63186;51.204;6.536;2022-11-02T12:38:38;101713.66;;;14.72;60.94
74659;BME280;63186;51.204;6.536;2022-11-02T12:43:44;101712.53;;;14.96;59.17
74659;BME280;63186;51.204;6.536;2022-11-02T12:49:14;101697.66;;;15.23;58.08
74659;BME280;63186;51.204;6.536;2022-11-02T12:51:50;101690.63;;;15.25;57.42
74659;BME280;63186;51.204;6.536;2022-11-02T12:54:25;101694.84;;;15.14;56.85
74659;BME280;63186;51.204;6.536;2022-11-02T12:56:53;101690.47;;;15.22;57.89
74659;BME280;63186;51.204;6.536;2022-11-02T12:59:26;101693.59;;;15.29;57.66
74659;BME280;63186;51.204;6.536;2022-11-02T13:01:56;101678.25;;;15.31;56.88
74659;BME280;63186;51.204;6.536;2022-11-02T13:04:32;101683.59;;;15.19;57.61
74659;BME280;63186;51.204;6.536;2022-11-02T13:07:08;101681.91;;;15.01;58.26
74659;BME280;63186;51.204;6.536;2022-11-02T13:12:21;101686.84;;;14.81;58.29
74659;BME280;63186;51.204;6.536;2022-11-02T13:14:49;101687.59;;;14.73;59.52
74659;BME280;63186;51.204;6.536;2022-11-02T13:17:22;101686.03;;;14.58;59.59
74659;BME280;63186;51.204;6.536;2022-11-02T13:20:03;101685.97;;;14.50;59.91
74659;BME280;63186;51.204;6.536;2022-11-02T13:22:35;101677.66;;;14.50;58.82
74659;BME280;63186;51.204;6.536;2022-11-02T13:25:15;101673.09;;;14.54;59.29
74659;BME280;63186;51.204;6.536;2022-11-02T13:27:47;101673.81;;;14.59;59.53
74659;BME280;63186;51.204;6.536;2022-11-02T13:30:16;101669.41;;;14.58;59.75
74659;BME280;63186;51.204;6.536;2022-11-02T13:35:27;101671.63;;;14.48;60.46
74659;BME280;63186;51.204;6.536;2022-11-02T13:38:02;101675.63;;;14.42;60.02
74659;BME280;63186;51.204;6.536;2022-11-02T13:40:35;101666.72;;;14.31;59.99
74659;BME280;63186;51.204;6.536;2022-11-02T13:43:36;101669.13;;;14.24;60.87
74659;BME280;63186;51.204;6.536;2022-11-02T13:46:14;101669.59;;;14.03;61.44
74659;BME280;63186;51.204;6.536;2022-11-02T13:51:41;101672.31;;;13.81;63.02
74659;BME280;63186;51.204;6.536;2022-11-02T13:54:23;101672.31;;;13.81;62.81
74659;BME280;63186;51.204;6.536;2022-11-02T13:56:52;101674.66;;;13.88;62.58
74659;BME280;63186;51.204;6.536;2022-11-02T13:59:25;101669.31;;;13.91;62.56
74659;BME280;63186;51.204;6.536;2022-11-02T14:01:53;101654.84;;;13.94;62.28
74659;BME280;63186;51.204;6.536;2022-11-02T14:04:20;101652.59;;;13.96;61.70
74659;BME280;63186;51.204;6.536;2022-11-02T14:06:53;101654.56;;;13.96;61.26
74659;BME280;63186;51.204;6.536;2022-11-02T14:09:33;101647.56;;;13.98;60.13
74659;BME280;63186;51.204;6.536;2022-11-02T14:14:44;101643.16;;;13.97;61.16
74659;BME280;63186;51.204;6.536;2022-11-02T14:17:13;101643.28;;;13.92;61.01
74659;BME280;63186;51.204;6.536;2022-11-02T14:22:13;101654.06;;;13.80;61.41
74659;BME280;63186;51.204;6.536;2022-11-02T14:40:50;101649.72;;;13.51;61.97
74659;BME280;63186;51.204;6.536;2022-11-02T14:48:56;101630.06;;;13.39;62.40
74659;BME280;63186;51.204;6.536;2022-11-02T14:51:26;101624.94;;;13.33;62.27
74659;BME280;63186;51.204;6.536;2022-11-02T14:53:58;101636.41;;;13.26;61.84
74659;BME280;63186;51.204;6.536;2022-11-02T14:56:54;101635.16;;;13.18;62.24
74659;BME280;63186;51.204;6.536;2022-11-02T14:59:43;101618.25;;;13.06;62.41
74659;BME280;63186;51.204;6.536;2022-11-02T15:02:31;101626.34;;;13.02;62.78
74659;BME280;63186;51.204;6.536;2022-11-02T15:05:00;101624.59;;;12.93;63.24